Airfield :
LOGIN :

Register | Disclaimer

   EN    FR    IT 

 










Legend :    VFR   Marginal VFR   IFR   Intensive IFR   Very Intensive IFR
Visi :
Ceiling :
>= 8 km
>= 3000ft
5 to 8 km
1000 to 3000 ft
1500m to 5 km
500 to 1000 ft
800 to 1500m
200 to 500 ft
< 800m
< 200 ft
Symbols :   Thunderstorms  Fog  Heavy snow  Heavy precipitations  Wind > 20 kt
SIGMETs :     Misc.  Thunderstorms  Icing  Turbulence  Mountain Waves  Volcanic Ashes






- Airport Elevation : 404 ft
- IATA code : WRO


EPWR - Wroclaw

CURRENT METAR :
  • 011830Z 00000KT CAVOK 02/M06 Q1016

EXPIRED METARs :
  • 011800Z VRB01KT CAVOK 04/M06 Q1016
  • 011730Z 29003KT CAVOK 06/M06 Q1016
  • 011700Z 30006KT CAVOK 06/M05 Q1016
  • 011630Z 29006KT CAVOK 07/M06 Q1017
  • 011600Z 28006KT 240V320 CAVOK 08/M06 Q1017

TAF TAF EPWR
Valid from the 01 at 18:00 until the 02 at 18:00 UTC


011730Z 0118/0218 26006KT CAVOK



MET'MAP, your aeronautical weather chart ! - Copyright ORBIFLY December 2007 - Disclaimer

ORBIFLY MET'MAP TEAM :

Programming & Development : Alexandra Zaïnal
Concept & original design : Baudouin d'Aumeries
Assistance for programming : Marc-Olivier Méhu
Technical & hardware support : Manuel Goepfert

Contact : metmap@orbifly.com




SOURCES & CREDITS :

   NOAA